createdAt,value
2019-03-09T00:01:09.081Z,65.10
2019-03-09T00:04:17.523Z,66.50
2019-03-09T00:06:55.683Z,66.90
2019-03-09T00:12:20.883Z,66.30
2019-03-09T00:14:51.991Z,69.60
2019-03-09T00:17:25.687Z,72.40
2019-03-09T00:20:01.601Z,72.50
2019-03-09T00:22:34.106Z,72.40
2019-03-09T00:25:57.715Z,72.50
2019-03-09T00:28:31.202Z,74.00
2019-03-09T00:31:44.094Z,74.00
2019-03-09T00:34:18.425Z,73.60
2019-03-09T00:36:49.627Z,72.30
2019-03-09T00:39:36.215Z,73.80
2019-03-09T00:45:20.029Z,71.10
2019-03-09T00:50:49.974Z,70.70
2019-03-09T00:56:20.380Z,69.10
2019-03-09T01:01:44.542Z,67.60
2019-03-09T01:04:17.077Z,67.20
2019-03-09T01:06:56.804Z,65.60
2019-03-09T01:09:35.441Z,67.60
2019-03-09T01:12:15.493Z,67.30
2019-03-09T01:14:40.106Z,69.80
2019-03-09T01:17:16.241Z,70.70
2019-03-09T01:20:31.498Z,71.00
2019-03-09T01:23:08.097Z,72.50
2019-03-09T01:25:42.216Z,71.70
2019-03-09T01:28:13.016Z,74.20
2019-03-09T01:30:48.079Z,75.00
2019-03-09T01:33:19.900Z,73.90
2019-03-09T01:36:01.329Z,75.20
2019-03-09T01:38:36.120Z,75.50
2019-03-09T01:41:08.545Z,74.90
2019-03-09T01:48:07.621Z,75.30
2019-03-09T01:50:41.290Z,73.30
2019-03-09T01:53:17.466Z,77.10
2019-03-09T01:55:48.579Z,78.80
2019-03-09T01:58:27.411Z,77.50
2019-03-09T02:01:49.383Z,77.60
2019-03-09T02:04:22.581Z,78.60
2019-03-09T02:09:45.794Z,73.90
2019-03-09T02:12:18.299Z,75.80
2019-03-09T02:15:03.527Z,74.60
2019-03-09T02:17:36.264Z,73.50
2019-03-09T02:23:06.651Z,76.30
2019-03-09T02:25:39.734Z,74.10
2019-03-09T02:28:18.035Z,76.90
2019-03-09T02:31:00.679Z,77.50
2019-03-09T02:33:32.553Z,78.40
2019-03-09T02:36:15.207Z,80.00
2019-03-09T02:38:48.570Z,82.10
2019-03-09T02:41:22.527Z,78.80
2019-03-09T02:44:02.228Z,76.70
2019-03-09T02:46:37.940Z,75.60
2019-03-09T02:50:00.599Z,73.90
2019-03-09T02:52:38.025Z,74.20
2019-03-09T02:57:59.307Z,75.00
2019-03-09T03:00:32.926Z,74.60
2019-03-09T03:03:09.122Z,75.40
2019-03-09T03:05:37.989Z,75.30
2019-03-09T03:11:01.801Z,78.00
2019-03-09T03:13:34.306Z,79.20
2019-03-09T03:16:26.221Z,77.80
2019-03-09T03:18:59.442Z,77.80
2019-03-09T03:21:31.405Z,77.60
2019-03-09T03:24:08.096Z,77.30
2019-03-09T03:26:39.761Z,77.40
2019-03-09T03:30:02.590Z,77.90
2019-03-09T03:32:36.234Z,78.70
2019-03-09T03:38:02.560Z,77.20
2019-03-09T03:40:32.259Z,76.70
2019-03-09T03:43:55.697Z,76.60
2019-03-09T03:46:33.615Z,76.70
2019-03-09T03:51:55.829Z,76.00
2019-03-09T03:54:25.668Z,76.50
2019-03-09T03:57:24.419Z,76.40
2019-03-09T03:59:55.861Z,77.20
2019-03-09T04:02:29.925Z,78.00
2019-03-09T04:05:00.717Z,77.60
2019-03-09T04:07:36.171Z,77.60
2019-03-09T04:17:41.053Z,78.30
2019-03-09T04:20:25.994Z,78.40
2019-03-09T04:23:37.701Z,78.10
2019-03-09T04:26:07.006Z,80.10
2019-03-09T04:28:36.593Z,80.80
2019-03-09T04:31:46.502Z,79.90
2019-03-09T04:34:19.336Z,80.30
2019-03-09T04:39:40.642Z,85.50
2019-03-09T04:42:13.733Z,85.00
2019-03-09T04:44:53.882Z,83.30
2019-03-09T04:47:28.490Z,82.80
2019-03-09T04:50:02.861Z,82.60
2019-03-09T04:52:35.637Z,81.20
2019-03-09T04:55:07.020Z,81.00
2019-03-09T04:58:06.675Z,81.40
2019-03-09T05:00:37.363Z,81.90
2019-03-09T05:03:09.570Z,83.20
2019-03-09T05:06:27.824Z,81.10
2019-03-09T05:09:01.977Z,83.00
2019-03-09T05:11:34.381Z,82.50
2019-03-09T05:14:12.977Z,82.50
2019-03-09T05:16:43.369Z,83.40
2019-03-09T05:19:16.458Z,85.50
2019-03-09T05:21:47.435Z,83.90
2019-03-09T05:24:19.692Z,82.80
2019-03-09T05:27:43.678Z,82.50
2019-03-09T05:30:39.247Z,81.60
2019-03-09T05:33:09.985Z,80.20
2019-03-09T05:36:15.560Z,80.10
2019-03-09T05:38:47.559Z,81.70
2019-03-09T05:41:16.842Z,81.80
2019-03-09T05:44:18.137Z,82.00
2019-03-09T05:46:49.877Z,82.20
2019-03-09T05:49:23.059Z,79.80
2019-03-09T05:52:32.913Z,81.50
2019-03-09T05:55:02.326Z,80.40
2019-03-09T05:57:34.516Z,80.10
2019-03-09T06:00:41.849Z,82.20
2019-03-09T06:03:13.919Z,82.30
2019-03-09T06:05:49.206Z,80.80
2019-03-09T06:08:31.547Z,78.30
2019-03-09T06:11:01.963Z,78.00
2019-03-09T06:13:31.472Z,77.10
2019-03-09T06:16:00.944Z,78.00
2019-03-09T06:18:36.376Z,76.90
2019-03-09T06:21:58.306Z,75.80
2019-03-09T06:24:28.862Z,76.80
2019-03-09T06:26:59.319Z,81.70
2019-03-09T06:30:20.000Z,81.20
2019-03-09T06:33:25.755Z,81.00
2019-03-09T06:35:58.162Z,77.90
2019-03-09T06:38:45.817Z,77.30
2019-03-09T06:41:23.261Z,77.80
2019-03-09T06:44:03.443Z,76.50
2019-03-09T06:46:33.798Z,75.70
2019-03-09T06:49:06.463Z,74.80
2019-03-09T06:52:00.056Z,75.20
2019-03-09T06:54:32.268Z,76.10
2019-03-09T06:57:01.854Z,77.30
2019-03-09T06:59:33.109Z,74.00
2019-03-09T07:02:02.485Z,73.20
2019-03-09T07:05:05.270Z,73.50
2019-03-09T07:07:35.720Z,74.90
2019-03-09T07:10:07.398Z,74.10
2019-03-09T07:13:14.555Z,72.40
2019-03-09T07:15:46.104Z,71.90
2019-03-09T07:18:22.353Z,73.10
2019-03-09T07:21:38.454Z,71.80
2019-03-09T07:24:09.832Z,71.80
2019-03-09T07:26:40.908Z,71.70
2019-03-09T07:29:22.551Z,71.80
2019-03-09T07:32:00.821Z,71.10
2019-03-09T07:34:35.434Z,71.50
2019-03-09T07:37:06.106Z,72.30
2019-03-09T07:39:36.324Z,72.90
2019-03-09T07:42:09.274Z,74.00
2019-03-09T07:44:41.622Z,75.00
2019-03-09T07:50:10.464Z,73.70
2019-03-09T07:52:40.765Z,72.10
2019-03-09T07:55:41.639Z,72.80
2019-03-09T07:58:12.995Z,73.70
2019-03-09T08:00:43.940Z,73.70
2019-03-09T08:03:14.833Z,72.60
2019-03-09T08:05:46.252Z,71.80
2019-03-09T08:08:54.367Z,72.60
2019-03-09T08:11:26.714Z,72.80
2019-03-09T08:13:56.940Z,72.90
2019-03-09T08:16:54.286Z,69.60
2019-03-09T08:19:25.777Z,71.10
2019-03-09T08:21:55.690Z,72.70
2019-03-09T08:24:30.025Z,73.10
2019-03-09T08:27:01.701Z,74.20
2019-03-09T08:37:02.039Z,72.30
2019-03-09T08:39:34.793Z,71.90
2019-03-09T08:42:09.172Z,72.50
2019-03-09T08:45:05.429Z,71.80
2019-03-09T08:47:51.555Z,70.40
2019-03-09T08:50:15.898Z,70.50
2019-03-09T08:53:01.182Z,67.90
2019-03-09T08:55:31.625Z,68.50
2019-03-09T08:58:04.190Z,67.30
2019-03-09T09:00:38.052Z,66.80
2019-03-09T09:03:15.095Z,65.80
2019-03-09T09:13:17.507Z,68.40
2019-03-09T09:16:05.188Z,65.80
2019-03-09T09:18:37.665Z,67.70
2019-03-09T09:21:49.152Z,67.30
2019-03-09T09:24:18.415Z,67.60
2019-03-09T09:26:50.101Z,68.50
2019-03-09T09:29:20.621Z,66.70
2019-03-09T09:31:52.322Z,65.50
2019-03-09T09:34:23.020Z,64.80
2019-03-09T09:36:53.341Z,65.10
2019-03-09T09:39:23.601Z,63.90
2019-03-09T09:41:54.711Z,63.10
2019-03-09T09:44:23.705Z,62.80
2019-03-09T09:46:55.188Z,64.50
2019-03-09T09:49:58.576Z,64.80
2019-03-09T09:52:30.153Z,64.60
2019-03-09T09:55:00.695Z,63.30
2019-03-09T09:58:21.078Z,63.00
2019-03-09T10:00:50.063Z,62.60
2019-03-09T10:04:00.381Z,63.30
2019-03-09T10:06:36.348Z,61.90
2019-03-09T10:09:10.497Z,61.10
2019-03-09T10:11:50.004Z,60.00
2019-03-09T10:14:32.874Z,60.30
2019-03-09T10:17:06.475Z,59.40
2019-03-09T10:26:41.188Z,58.60
2019-03-09T10:29:14.853Z,57.70
2019-03-09T10:32:13.203Z,59.20
2019-03-09T10:34:46.102Z,59.70
2019-03-09T10:37:15.184Z,59.20
2019-03-09T10:40:29.199Z,59.20
2019-03-09T10:42:58.163Z,58.50
2019-03-09T10:45:27.178Z,59.00
2019-03-09T10:47:58.212Z,56.40
2019-03-09T10:50:28.721Z,57.00
2019-03-09T10:53:01.075Z,58.30
2019-03-09T10:55:35.553Z,56.50
2019-03-09T10:58:04.737Z,56.50
2019-03-09T11:00:42.101Z,55.80
2019-03-09T11:03:16.086Z,55.40
2019-03-09T11:05:51.369Z,56.10
2019-03-09T11:08:26.567Z,56.00
2019-03-09T11:10:59.707Z,57.30
2019-03-09T11:13:28.627Z,57.40
2019-03-09T11:16:02.858Z,57.70
2019-03-09T11:18:34.392Z,57.90
2019-03-09T11:21:16.588Z,57.00
2019-03-09T11:23:49.696Z,56.90
2019-03-09T11:26:29.269Z,56.40
2019-03-09T11:29:02.448Z,56.50
2019-03-09T11:31:31.976Z,56.00
2019-03-09T11:34:02.066Z,54.80
2019-03-09T11:36:32.404Z,54.20
2019-03-09T11:39:01.463Z,53.00
2019-03-09T11:41:30.947Z,54.30
2019-03-09T11:44:00.709Z,53.60
2019-03-09T11:46:30.956Z,56.30
2019-03-09T11:49:00.202Z,54.30
2019-03-09T11:51:29.208Z,54.40
2019-03-09T11:54:02.707Z,54.90
2019-03-09T11:56:36.473Z,55.00
2019-03-09T11:59:08.822Z,57.00
2019-03-09T12:01:52.967Z,57.00
2019-03-09T12:04:21.812Z,55.70
2019-03-09T12:06:54.517Z,54.20
2019-03-09T12:09:26.311Z,56.60
2019-03-09T12:12:02.439Z,56.80
2019-03-09T12:14:42.171Z,56.40
2019-03-09T12:17:14.848Z,54.80
2019-03-09T12:19:44.501Z,55.90
2019-03-09T12:22:14.009Z,56.20
2019-03-09T12:24:45.997Z,55.80
2019-03-09T12:27:15.195Z,55.80
2019-03-09T12:29:44.686Z,57.60
2019-03-09T12:32:17.494Z,56.60
2019-03-09T12:34:51.469Z,55.90
2019-03-09T12:37:24.158Z,56.70
2019-03-09T12:40:00.371Z,57.30
2019-03-09T12:45:25.369Z,56.70
2019-03-09T12:47:55.567Z,56.60
2019-03-09T12:50:31.599Z,55.20
2019-03-09T12:53:00.988Z,56.00
2019-03-09T12:55:30.324Z,54.80
2019-03-09T12:58:02.076Z,54.80
2019-03-09T13:00:32.487Z,54.00
2019-03-09T13:03:55.044Z,54.20
2019-03-09T13:06:30.822Z,54.40
2019-03-09T13:09:54.064Z,54.70
2019-03-09T13:12:25.060Z,53.80
2019-03-09T13:14:56.295Z,53.70
2019-03-09T13:17:44.109Z,53.70
2019-03-09T13:20:18.713Z,53.10
2019-03-09T13:22:51.312Z,53.50
2019-03-09T13:25:24.588Z,53.70
2019-03-09T13:27:55.990Z,53.40
2019-03-09T13:31:01.037Z,51.70
2019-03-09T13:33:34.370Z,52.30
2019-03-09T13:36:07.667Z,52.70
2019-03-09T13:38:44.691Z,52.90
2019-03-09T13:41:16.986Z,53.60
2019-03-09T13:43:54.301Z,55.10
2019-03-09T13:47:32.722Z,54.60
2019-03-09T13:49:02.105Z,54.50
2019-03-09T13:51:35.655Z,56.10
2019-03-09T13:54:05.342Z,57.90
2019-03-09T13:56:41.529Z,60.80
2019-03-09T13:59:11.534Z,60.30
2019-03-09T14:01:43.094Z,61.00
2019-03-09T14:04:24.495Z,59.60
2019-03-09T14:06:58.705Z,59.20
2019-03-09T14:10:04.085Z,59.10
2019-03-09T14:12:34.229Z,58.00
2019-03-09T14:15:05.625Z,59.30
2019-03-09T14:18:06.800Z,58.40
2019-03-09T14:20:36.353Z,58.70
2019-03-09T14:23:13.141Z,59.00
2019-03-09T14:25:43.238Z,59.30
2019-03-09T14:28:15.095Z,58.10
2019-03-09T14:31:34.385Z,59.00
2019-03-09T14:34:09.619Z,58.30
2019-03-09T14:39:18.372Z,57.70
2019-03-09T14:41:51.984Z,57.30
2019-03-09T14:45:16.003Z,58.20
2019-03-09T14:47:48.963Z,56.60
2019-03-09T14:50:20.421Z,57.90
2019-03-09T14:52:58.571Z,55.40
2019-03-09T14:55:29.874Z,56.00
2019-03-09T14:58:52.906Z,56.70
2019-03-09T15:01:23.698Z,56.80
2019-03-09T15:03:54.292Z,55.40
2019-03-09T15:06:25.678Z,56.10
2019-03-09T15:09:02.251Z,55.20
2019-03-09T15:11:32.251Z,55.90
2019-03-09T15:14:03.089Z,55.60
2019-03-09T15:16:36.444Z,56.30
2019-03-09T15:19:16.055Z,55.60
2019-03-09T15:21:45.685Z,55.10
2019-03-09T15:24:15.267Z,55.20
2019-03-09T15:26:45.862Z,55.30
2019-03-09T15:29:15.094Z,54.70
2019-03-09T15:31:45.313Z,53.10
2019-03-09T15:34:20.119Z,54.00
2019-03-09T15:36:52.724Z,56.30
2019-03-09T15:39:47.940Z,57.10
2019-03-09T15:42:20.250Z,58.30
2019-03-09T15:47:41.384Z,57.50
2019-03-09T15:50:22.204Z,56.50
2019-03-09T15:53:27.334Z,57.30
2019-03-09T15:56:03.809Z,57.80
2019-03-09T15:58:37.044Z,57.50
2019-03-09T16:01:17.574Z,58.40
2019-03-09T16:03:56.272Z,59.40
2019-03-09T16:07:22.103Z,59.30
2019-03-09T16:09:52.156Z,57.20
2019-03-09T16:12:27.269Z,58.50
2019-03-09T16:15:20.990Z,58.10
2019-03-09T16:17:50.063Z,57.50
2019-03-09T16:23:24.380Z,56.50
2019-03-09T16:25:53.248Z,56.60
2019-03-09T16:28:31.158Z,56.40
2019-03-09T16:31:01.675Z,56.70
2019-03-09T16:33:31.229Z,56.20
2019-03-09T16:36:03.699Z,56.00
2019-03-09T16:38:33.830Z,56.00
2019-03-09T16:41:35.829Z,56.10
2019-03-09T16:44:14.191Z,55.90
2019-03-09T16:46:44.793Z,56.20
2019-03-09T16:49:55.813Z,55.50
2019-03-09T16:52:24.928Z,55.40
2019-03-09T16:54:54.689Z,55.20
2019-03-09T16:57:25.240Z,55.00
2019-03-09T16:59:56.163Z,55.90
2019-03-09T17:02:29.712Z,56.00
2019-03-09T17:05:09.259Z,55.90
2019-03-09T17:07:39.197Z,57.00
2019-03-09T17:10:57.294Z,56.20
2019-03-09T17:13:35.517Z,57.40
2019-03-09T17:18:59.325Z,58.10
2019-03-09T17:22:51.108Z,56.00
2019-03-09T17:24:11.828Z,55.70
2019-03-09T17:26:47.841Z,54.70
2019-03-09T17:29:21.612Z,54.90
2019-03-09T17:31:53.845Z,54.60
2019-03-09T17:34:33.460Z,55.60
2019-03-09T17:37:01.679Z,55.50
2019-03-09T17:40:15.167Z,55.40
2019-03-09T17:42:51.679Z,57.20
2019-03-09T17:45:46.020Z,56.90
2019-03-09T17:48:21.309Z,57.90
2019-03-09T17:51:24.824Z,60.10
2019-03-09T17:54:03.293Z,60.30
2019-03-09T17:56:37.658Z,62.50
2019-03-09T17:59:07.789Z,62.10
2019-03-09T18:01:40.097Z,65.70
2019-03-09T18:07:14.380Z,66.20
2019-03-09T18:12:42.412Z,65.80
2019-03-09T18:15:14.726Z,66.20
2019-03-09T18:17:52.194Z,68.10
2019-03-09T18:20:26.617Z,67.60
2019-03-09T18:23:03.915Z,67.00
2019-03-09T18:25:34.469Z,67.90
2019-03-09T18:28:08.196Z,63.90
2019-03-09T18:31:22.347Z,61.30
2019-03-09T18:33:55.745Z,60.60
2019-03-09T18:36:29.503Z,61.10
2019-03-09T18:39:08.592Z,61.80
2019-03-09T18:41:42.414Z,65.50
2019-03-09T18:44:12.858Z,67.20
2019-03-09T18:46:46.701Z,67.40
2019-03-09T18:50:08.441Z,67.90
2019-03-09T18:52:43.942Z,67.90
2019-03-09T18:58:06.011Z,71.70
2019-03-09T19:00:41.298Z,74.50
2019-03-09T19:03:48.317Z,74.60
2019-03-09T19:06:22.406Z,75.60
2019-03-09T19:09:36.090Z,74.70
2019-03-09T19:12:10.985Z,81.70
2019-03-09T19:14:44.479Z,84.30
2019-03-09T19:17:16.719Z,87.40
2019-03-09T19:19:49.659Z,82.30
2019-03-09T19:22:56.216Z,88.30
2019-03-09T19:25:31.906Z,87.50
2019-03-09T19:31:06.817Z,83.00
2019-03-09T19:33:37.923Z,91.30
2019-03-09T19:36:12.495Z,94.50
2019-03-09T19:38:46.257Z,94.40
2019-03-09T19:41:23.488Z,91.00
2019-03-09T19:43:49.823Z,89.50
2019-03-09T19:46:22.366Z,90.10
2019-03-09T19:49:46.203Z,87.20
2019-03-09T19:52:19.165Z,84.60
2019-03-09T19:57:41.642Z,82.20
2019-03-09T20:03:01.092Z,86.80
2019-03-09T20:06:37.723Z,82.70
2019-03-09T20:08:22.468Z,86.30
2019-03-09T20:13:42.083Z,90.70
2019-03-09T20:16:17.427Z,90.00
2019-03-09T20:18:47.747Z,90.80
2019-03-09T20:21:18.922Z,91.80
2019-03-09T20:24:00.487Z,88.70
2019-03-09T20:26:34.372Z,91.40
2019-03-09T20:31:46.788Z,88.00
2019-03-09T20:34:21.034Z,83.00
2019-03-09T20:36:53.745Z,89.10
2019-03-09T20:39:36.649Z,86.10
2019-03-09T20:42:08.368Z,82.50
2019-03-09T20:44:43.160Z,80.10
2019-03-09T20:47:15.127Z,88.60
2019-03-09T20:49:45.701Z,90.20
2019-03-09T20:52:48.093Z,89.10
2019-03-09T20:55:33.256Z,84.10
2019-03-09T20:58:08.114Z,83.60
2019-03-09T21:00:48.688Z,82.70
2019-03-09T21:03:19.386Z,81.40
2019-03-09T21:06:19.714Z,81.70
2019-03-09T21:08:51.701Z,79.60
2019-03-09T21:14:05.657Z,77.30
2019-03-09T21:16:39.835Z,73.60
2019-03-09T21:19:19.906Z,76.30
2019-03-09T21:21:50.014Z,73.90
2019-03-09T21:24:23.740Z,72.60
2019-03-09T21:26:57.473Z,75.50
2019-03-09T21:29:35.289Z,75.00
2019-03-09T21:32:10.265Z,75.80
2019-03-09T21:34:49.765Z,73.70
2019-03-09T21:37:19.478Z,75.60
2019-03-09T21:39:50.062Z,72.20
2019-03-09T21:42:57.872Z,72.20
2019-03-09T21:45:31.156Z,72.10
2019-03-09T21:48:02.213Z,70.80
2019-03-09T21:50:43.443Z,72.00
2019-03-09T21:53:18.742Z,71.80
2019-03-09T21:55:53.342Z,71.40
2019-03-09T21:58:22.098Z,70.10
2019-03-09T22:00:53.637Z,69.20
2019-03-09T22:04:01.741Z,70.70
2019-03-09T22:06:31.740Z,72.60
2019-03-09T22:09:02.475Z,71.20
2019-03-09T22:12:24.904Z,69.20
2019-03-09T22:14:55.406Z,69.40
2019-03-09T22:20:21.563Z,68.50
2019-03-09T22:22:53.843Z,67.90
2019-03-09T22:25:26.272Z,68.20
2019-03-09T22:27:57.127Z,66.80
2019-03-09T22:31:02.272Z,65.70
2019-03-09T22:33:38.624Z,65.60
2019-03-09T22:36:07.487Z,66.20
2019-03-09T22:39:16.015Z,66.80
2019-03-09T22:41:47.402Z,65.90
2019-03-09T22:44:19.868Z,66.00
2019-03-09T22:46:52.192Z,64.80
2019-03-09T22:49:21.241Z,65.30
2019-03-09T22:51:52.609Z,65.10
2019-03-09T22:54:31.355Z,64.40
2019-03-09T22:57:06.310Z,64.90
2019-03-09T23:00:23.298Z,65.00
2019-03-09T23:02:57.709Z,65.20
2019-03-09T23:05:28.707Z,64.10
2019-03-09T23:08:46.947Z,64.60
2019-03-09T23:11:20.129Z,63.90
2019-03-09T23:13:52.727Z,64.50
2019-03-09T23:16:37.445Z,64.00
2019-03-09T23:19:06.329Z,64.10
2019-03-09T23:21:38.854Z,63.30
2019-03-09T23:24:12.436Z,61.50
2019-03-09T23:26:42.134Z,62.40
2019-03-09T23:29:42.605Z,63.00
2019-03-09T23:32:14.366Z,62.10
2019-03-09T23:34:44.036Z,61.50
2019-03-09T23:37:14.596Z,61.40
2019-03-09T23:39:49.132Z,62.10
2019-03-09T23:42:21.703Z,62.00
2019-03-09T23:45:02.861Z,63.30
2019-03-09T23:47:33.934Z,61.30
2019-03-09T23:50:47.539Z,61.30
2019-03-09T23:53:21.265Z,60.80
2019-03-09T23:58:44.350Z,62.60
